Time;durP1;ratioP1;P1;durP2;ratioP2;P2;SDS_P1;SDS_P2;PMS_P1;PMS_P2;Temp;Humidity;BMP_temperature;BMP_pressure;BME280_temperature;BME280_humidity;BME280_pressure;Samples;Min_cycle;Max_cycle;Signal;HPM_P1;HPM_P2
2022/04/02 00:02:53;;;;;;;35.20;19.30;;;;;;;4.53;65.93;98582.72;5369579;32;35493;-63
2022/04/02 00:05:55;;;;;;;32.03;18.10;;;;;;;4.63;65.13;98576.19;5369909;32;34518;-63
2022/04/02 00:08:57;;;;;;;32.03;17.63;;;;;;;4.30;66.80;98570.69;5363017;32;35279;-61
2022/04/02 00:11:59;;;;;;;34.77;19.50;;;;;;;4.92;64.83;98573.22;5375684;32;37153;-61
2022/04/02 00:15:01;;;;;;;31.93;17.27;;;;;;;4.33;66.00;98567.97;5363329;32;34405;-62
2022/04/02 00:18:04;;;;;;;30.63;17.50;;;;;;;4.70;65.13;98573.31;5371239;32;44617;-63
2022/04/02 00:21:06;;;;;;;32.97;18.00;;;;;;;4.56;65.29;98568.72;5362487;32;34741;-62
2022/04/02 00:24:08;;;;;;;33.17;18.33;;;;;;;5.01;63.85;98575.41;5366287;32;35473;-62
2022/04/02 00:27:10;;;;;;;30.90;17.97;;;;;;;5.31;61.19;98560.97;5370015;32;34814;-63
2022/04/02 00:30:12;;;;;;;32.23;16.90;;;;;;;4.07;64.84;98571.66;5363732;32;34074;-62
2022/04/02 00:33:14;;;;;;;28.07;16.17;;;;;;;4.79;63.04;98573.75;5376240;32;34565;-62
2022/04/02 00:36:19;;;;;;;29.37;17.30;;;;;;;4.53;63.34;98569.72;5363323;32;33946;-62
2022/04/02 00:39:22;;;;;;;29.70;17.80;;;;;;;4.31;64.33;98555.91;5343836;32;35093;-62
2022/04/02 00:42:24;;;;;;;30.77;17.63;;;;;;;3.85;65.76;98551.81;5359758;32;35182;-62
2022/04/02 00:45:26;;;;;;;28.73;17.30;;;;;;;4.13;65.40;98547.16;5366375;32;34492;-62
2022/04/02 00:48:28;;;;;;;30.67;17.33;;;;;;;4.31;64.30;98558.50;5372761;32;34917;-63
2022/04/02 00:51:31;;;;;;;30.40;16.77;;;;;;;4.00;65.58;98551.19;5363483;32;36139;-61
2022/04/02 00:54:33;;;;;;;33.00;17.70;;;;;;;3.96;66.32;98555.66;5376293;32;35088;-61
2022/04/02 00:57:35;;;;;;;31.97;17.97;;;;;;;4.80;62.92;98556.38;5360727;32;45109;-63
2022/04/02 01:00:40;;;;;;;30.73;17.77;;;;;;;4.31;63.96;98555.91;5377120;32;34056;-62
2022/04/02 01:03:43;;;;;;;32.77;16.97;;;;;;;4.02;64.25;98575.34;5361061;32;34748;-62
2022/04/02 01:06:45;;;;;;;27.17;15.97;;;;;;;4.31;64.32;98568.91;5358360;32;34561;-61
2022/04/02 01:09:47;;;;;;;30.67;17.33;;;;;;;3.64;66.54;98575.16;5363574;32;34857;-61
2022/04/02 01:12:49;;;;;;;31.63;18.10;;;;;;;3.59;66.82;98566.69;5349407;32;34881;-61
2022/04/02 01:15:52;;;;;;;31.60;17.67;;;;;;;2.77;69.85;98582.81;5373734;32;35450;-61
2022/04/02 01:18:54;;;;;;;31.20;17.63;;;;;;;3.23;68.70;98580.22;5360719;32;34514;-61
2022/04/02 01:21:56;;;;;;;29.40;17.07;;;;;;;3.25;67.58;98599.16;5374900;32;35609;-61
2022/04/02 01:24:58;;;;;;;29.77;16.57;;;;;;;3.58;66.59;98585.78;5362170;32;35531;-61
2022/04/02 01:28:01;;;;;;;31.60;17.80;;;;;;;3.39;67.48;98584.81;5361721;32;34153;-62
2022/04/02 01:31:05;;;;;;;29.90;16.53;;;;;;;3.69;66.94;98593.16;5376985;32;35090;-62
2022/04/02 01:34:07;;;;;;;31.30;17.73;;;;;;;4.28;63.36;98600.28;5362029;32;45383;-62
2022/04/02 01:37:13;;;;;;;27.93;16.87;;;;;;;4.33;63.30;98606.97;5375426;32;34486;-62
2022/04/02 01:40:16;;;;;;;29.97;16.50;;;;;;;4.07;64.05;98607.22;5342553;32;34503;-62
2022/04/02 01:43:18;;;;;;;28.20;16.57;;;;;;;4.08;64.62;98614.94;5372250;32;34359;-62
2022/04/02 01:46:20;;;;;;;32.80;17.97;;;;;;;3.74;65.92;98615.47;5364876;32;35285;-63
2022/04/02 01:49:22;;;;;;;27.53;16.20;;;;;;;3.52;65.83;98607.66;5364315;32;34150;-62
2022/04/02 01:52:24;;;;;;;30.73;17.27;;;;;;;3.67;65.09;98608.81;5376275;32;34225;-62
2022/04/02 01:55:26;;;;;;;31.50;17.37;;;;;;;3.91;64.58;98608.72;5362773;32;34792;-62
2022/04/02 01:58:29;;;;;;;28.60;16.77;;;;;;;4.05;64.51;98617.66;5374232;32;34213;-62
2022/04/02 02:01:31;;;;;;;29.37;17.80;;;;;;;3.95;64.21;98616.34;5362518;32;35301;-61
2022/04/02 02:04:34;;;;;;;30.03;17.20;;;;;;;3.69;65.37;98613.94;5378251;32;34130;-61
2022/04/02 02:07:36;;;;;;;30.83;17.27;;;;;;;3.42;66.71;98611.53;5350582;32;44418;-61
2022/04/02 02:10:38;;;;;;;31.17;18.70;;;;;;;3.38;67.07;98619.47;5363830;32;34511;-63
2022/04/02 02:13:40;;;;;;;32.33;17.10;;;;;;;2.93;68.75;98628.91;5374958;32;34622;-64
2022/04/02 02:16:43;;;;;;;36.50;19.50;;;;;;;3.38;67.39;98633.31;5359915;32;34866;-62
2022/04/02 02:19:45;;;;;;;33.67;18.53;;;;;;;3.53;66.17;98630.13;5372682;32;35637;-62
2022/04/02 02:22:49;;;;;;;32.97;17.80;;;;;;;3.49;66.47;98638.94;5359879;32;35686;-61
2022/04/02 02:25:51;;;;;;;31.37;17.53;;;;;;;3.70;65.12;98626.03;5357460;32;35443;-62
2022/04/02 02:28:53;;;;;;;33.57;17.00;;;;;;;4.12;64.14;98623.44;5366466;32;34494;-63
2022/04/02 02:31:56;;;;;;;33.27;19.20;;;;;;;3.67;65.16;98621.81;5363130;32;34848;-61
2022/04/02 02:38:20;;;;;;;32.57;17.80;;;;;;;3.43;66.00;98617.56;5351172;32;35103;-63
2022/04/02 02:41:23;;;;;;;32.40;17.87;;;;;;;4.00;64.02;98619.63;5363402;32;35367;-62
2022/04/02 02:44:25;;;;;;;32.23;18.03;;;;;;;4.59;61.86;98612.84;5362655;32;34219;-63
2022/04/02 02:47:27;;;;;;;33.00;18.13;;;;;;;4.07;64.07;98613.25;5362556;32;35423;-63
2022/04/02 02:50:30;;;;;;;32.27;18.60;;;;;;;4.03;64.15;98598.69;5376999;32;34298;-61
2022/04/02 02:53:32;;;;;;;28.47;17.47;;;;;;;3.76;64.38;98605.84;5362166;32;36194;-61
2022/04/02 02:56:34;;;;;;;29.47;16.67;;;;;;;3.98;63.54;98599.78;5375338;32;45614;-62
2022/04/02 02:59:36;;;;;;;31.40;17.63;;;;;;;3.79;64.94;98615.25;5362106;32;35140;-62
2022/04/02 03:02:39;;;;;;;30.10;16.97;;;;;;;3.60;65.23;98615.13;5372024;32;35272;-62
2022/04/02 03:05:41;;;;;;;31.33;18.40;;;;;;;3.73;64.44;98608.56;5348496;32;34096;-63
2022/04/02 03:08:43;;;;;;;28.77;16.87;;;;;;;3.79;63.83;98613.50;5360939;32;34795;-62
2022/04/02 03:11:45;;;;;;;30.93;17.57;;;;;;;3.87;64.87;98620.19;5373463;32;34488;-63
2022/04/02 03:14:47;;;;;;;32.17;18.10;;;;;;;3.20;65.93;98627.03;5360038;32;34614;-62
2022/04/02 03:17:51;;;;;;;31.10;17.43;;;;;;;3.85;63.31;98625.41;5369448;32;35735;-61
2022/04/02 03:20:53;;;;;;;28.62;16.80;;;;;;;3.18;66.02;98643.59;5358823;32;34331;-62
2022/04/02 03:23:55;;;;;;;30.33;17.70;;;;;;;3.91;63.41;98634.72;5373293;32;36120;-61
2022/04/02 03:26:57;;;;;;;31.27;17.27;;;;;;;3.75;64.09;98639.69;5353942;32;34968;-61
2022/04/02 03:29:59;;;;;;;29.53;17.07;;;;;;;4.38;61.65;98647.53;5361182;32;34678;-61
2022/04/02 03:33:01;;;;;;;29.93;17.43;;;;;;;4.32;61.89;98636.50;5373401;32;34175;-62
2022/04/02 03:36:04;;;;;;;29.80;16.27;;;;;;;4.13;62.72;98645.97;5363258;32;34552;-61
2022/04/02 03:39:06;;;;;;;27.93;17.27;;;;;;;4.21;62.61;98643.06;5358672;32;44659;-61
2022/04/02 03:42:09;;;;;;;30.00;17.07;;;;;;;4.77;60.90;98635.47;5354336;32;34083;-63
2022/04/02 03:45:14;;;;;;;30.47;17.00;;;;;;;4.23;61.60;98642.06;5374666;32;34769;-63
2022/04/02 03:48:16;;;;;;;31.10;16.80;;;;;;;3.59;65.81;98654.16;5364464;32;34813;-61
2022/04/02 03:51:18;;;;;;;29.97;17.53;;;;;;;3.67;64.60;98658.19;5364914;32;34807;-62
2022/04/02 03:54:20;;;;;;;29.17;16.90;;;;;;;3.52;66.08;98663.94;5376014;32;34688;-61
2022/04/02 03:57:22;;;;;;;30.53;17.57;;;;;;;3.44;65.62;98664.25;5362921;32;34774;-60
2022/04/02 04:00:25;;;;;;;29.33;15.07;;;;;;;3.46;65.71;98659.81;5378012;32;35919;-62
2022/04/02 04:03:27;;;;;;;31.13;16.83;;;;;;;4.37;63.02;98659.69;5356404;32;34667;-62
2022/04/02 04:06:29;;;;;;;31.67;17.37;;;;;;;4.89;60.11;98650.56;5368454;32;171324;-62
2022/04/02 04:09:31;;;;;;;32.67;18.70;;;;;;;4.11;62.97;98654.72;5368223;32;35486;-62
2022/04/02 04:12:34;;;;;;;29.07;16.97;;;;;;;4.33;62.09;98661.59;5363228;32;35119;-62
2022/04/02 04:15:36;;;;;;;27.17;16.50;;;;;;;4.13;62.78;98647.72;5374321;32;45111;-61
2022/04/02 04:18:38;;;;;;;26.83;16.13;;;;;;;3.85;63.52;98664.41;5359839;32;34559;-62
2022/04/02 04:21:40;;;;;;;28.17;16.73;;;;;;;4.29;62.84;98666.97;5376307;32;35102;-62
2022/04/02 04:24:43;;;;;;;27.23;15.57;;;;;;;4.82;59.55;98650.84;5362770;32;35019;-61
2022/04/02 04:27:45;;;;;;;29.30;15.93;;;;;;;4.99;58.94;98661.41;5371422;32;35076;-62
2022/04/02 04:30:48;;;;;;;28.03;17.10;;;;;;;3.27;65.66;98674.41;5369644;32;34408;-62
2022/04/02 04:33:50;;;;;;;28.20;16.00;;;;;;;3.90;63.73;98680.66;5363509;32;34966;-63
2022/04/02 04:36:53;;;;;;;27.93;15.97;;;;;;;4.08;61.62;98681.69;5376312;32;34861;-61
2022/04/02 04:39:55;;;;;;;26.37;15.33;;;;;;;3.80;62.84;98685.38;5342579;32;36187;-62
2022/04/02 04:42:58;;;;;;;26.70;15.93;;;;;;;3.22;64.76;98681.50;5376526;32;34934;-62
2022/04/02 04:46:00;;;;;;;23.93;13.60;;;;;;;3.56;63.54;98683.72;5361822;32;35336;-62
2022/04/02 04:49:02;;;;;;;27.60;15.93;;;;;;;4.24;62.05;98674.97;5371384;32;35300;-62
2022/04/02 04:52:05;;;;;;;27.00;14.93;;;;;;;3.62;62.81;98686.09;5366253;32;44172;-62
2022/04/02 04:55:07;;;;;;;28.70;16.73;;;;;;;3.82;62.77;98694.88;5350748;32;34645;-62
2022/04/02 04:58:09;;;;;;;26.70;15.87;;;;;;;3.30;65.46;98694.22;5375983;32;34934;-62
2022/04/02 05:01:14;;;;;;;27.50;15.87;;;;;;;3.71;63.41;98687.47;5364942;32;34905;-62
2022/04/02 05:04:17;;;;;;;27.87;14.80;;;;;;;3.92;62.53;98689.25;5377825;32;34219;-62
2022/04/02 05:07:19;;;;;;;29.47;16.70;;;;;;;3.78;63.14;98687.19;5359765;32;34981;-61
2022/04/02 05:10:21;;;;;;;27.47;15.20;;;;;;;4.12;61.64;98690.22;5368166;32;35666;-64
2022/04/02 05:13:23;;;;;;;28.80;17.43;;;;;;;4.12;61.68;98685.00;5370695;32;35257;-61
2022/04/02 05:16:26;;;;;;;29.47;16.90;;;;;;;3.55;64.37;98699.38;5359804;32;35390;-63
2022/04/02 05:19:28;;;;;;;27.57;15.37;;;;;;;3.99;61.71;98693.31;5372486;32;34481;-63
2022/04/02 05:22:31;;;;;;;28.97;16.00;;;;;;;4.54;60.47;98698.03;5360658;32;34805;-62
2022/04/02 05:25:34;;;;;;;25.80;15.20;;;;;;;3.82;63.22;98697.47;5376589;32;34947;-64
2022/04/02 05:28:36;;;;;;;29.50;16.83;;;;;;;4.67;59.66;98706.19;5362580;32;46912;-63
2022/04/02 05:31:41;;;;;;;29.40;15.90;;;;;;;4.53;61.07;98710.19;5365810;32;34465;-62
2022/04/02 05:34:43;;;;;;;27.87;15.57;;;;;;;4.21;60.77;98713.25;5376179;32;34635;-63
2022/04/02 05:37:46;;;;;;;27.63;16.17;;;;;;;4.98;59.38;98713.53;5359981;32;34298;-62
2022/04/02 05:40:48;;;;;;;22.90;13.13;;;;;;;4.94;59.04;98720.63;5354572;32;35418;-62
2022/04/02 05:43:50;;;;;;;27.60;15.00;;;;;;;4.83;58.37;98725.44;5348656;32;35346;-62
2022/04/02 05:46:52;;;;;;;26.23;14.87;;;;;;;3.85;61.87;98734.56;5375709;32;34181;-62
2022/04/02 05:50:15;;;;;;;25.73;14.80;;;;;;;4.12;61.47;98716.22;5367242;32;34868;-62
2022/04/02 05:53:37;;;;;;;26.13;15.47;;;;;;;4.72;58.98;98720.69;5361614;32;44439;-63
2022/04/02 05:56:40;;;;;;;30.97;16.77;;;;;;;3.87;62.36;98730.19;5371577;32;34084;-63
2022/04/02 05:59:42;;;;;;;30.23;16.47;;;;;;;4.06;62.79;98733.75;5363368;32;34619;-61
2022/04/02 06:02:45;;;;;;;27.97;15.63;;;;;;;4.28;61.80;98727.72;5375369;32;34681;-61
2022/04/02 06:05:48;;;;;;;27.17;15.13;;;;;;;3.96;61.96;98732.41;5365220;32;35347;-63
2022/04/02 06:08:50;;;;;;;29.08;18.33;;;;;;;4.37;61.16;98732.53;5361714;32;34954;-62
2022/04/02 06:11:58;;;;;;;28.00;16.40;;;;;;;5.09;59.13;98729.56;5374996;32;34912;-63
2022/04/02 06:15:00;;;;;;;28.13;16.47;;;;;;;4.62;60.51;98738.44;5362407;32;35280;-61
2022/04/02 06:18:03;;;;;;;33.23;15.90;;;;;;;4.72;59.79;98733.72;5354658;32;37171;-62
2022/04/02 06:21:05;;;;;;;26.00;15.00;;;;;;;5.03;59.12;98725.47;5358759;32;45246;-61
2022/04/02 06:24:07;;;;;;;29.30;15.97;;;;;;;5.23;57.92;98724.59;5376317;32;34232;-61
2022/04/02 06:27:09;;;;;;;26.60;15.63;;;;;;;4.01;61.65;98737.44;5360923;32;34179;-64
2022/04/02 06:30:18;;;;;;;30.73;15.40;;;;;;;3.87;63.54;98739.72;5362032;32;35313;-62
2022/04/02 06:33:27;;;;;;;26.07;15.20;;;;;;;4.99;58.83;98730.84;5370620;32;35269;-62
2022/04/02 06:36:29;;;;;;;27.73;15.70;;;;;;;4.89;59.44;98730.38;5360814;32;34714;-62
2022/04/02 06:39:31;;;;;;;25.17;13.97;;;;;;;5.39;58.64;98745.59;5356555;32;34351;-63
2022/04/02 06:42:33;;;;;;;26.17;14.97;;;;;;;4.82;59.42;98749.78;5359815;32;34248;-61
2022/04/02 06:45:36;;;;;;;25.83;15.27;;;;;;;4.65;60.71;98753.09;5370184;32;45185;-63
2022/04/02 06:48:38;;;;;;;25.47;14.77;;;;;;;4.88;60.54;98754.72;5368919;32;35269;-61
2022/04/02 06:51:40;;;;;;;28.27;14.93;;;;;;;4.85;59.74;98755.72;5361630;32;36351;-61
2022/04/02 06:54:42;;;;;;;26.63;14.87;;;;;;;5.16;58.66;98754.41;5376535;32;34766;-63
2022/04/02 06:57:58;;;;;;;23.57;15.30;;;;;;;5.02;58.90;98754.12;5360057;32;34613;-62
2022/04/02 07:01:00;;;;;;;24.40;15.33;;;;;;;5.01;59.54;98760.25;5370377;32;34949;-63
2022/04/02 07:04:02;;;;;;;27.17;14.87;;;;;;;4.89;59.98;98766.81;5360372;32;35352;-63
2022/04/02 07:07:05;;;;;;;29.17;15.63;;;;;;;5.09;59.28;98763.41;5363180;32;44611;-62
2022/04/02 07:10:08;;;;;;;24.20;14.63;;;;;;;4.98;59.57;98756.03;5375652;32;35125;-63
2022/04/02 07:13:10;;;;;;;25.80;14.50;;;;;;;5.40;58.63;98766.34;5359572;32;34922;-62
2022/04/02 07:16:13;;;;;;;27.93;14.53;;;;;;;4.79;59.95;98774.19;5372603;32;35172;-62
2022/04/02 07:19:19;;;;;;;25.07;14.37;;;;;;;5.22;58.93;98769.78;5357911;32;35422;-62
2022/04/02 07:22:23;;;;;;;26.63;15.60;;;;;;;4.84;59.42;98781.81;5373905;32;35830;-63
2022/04/02 07:25:25;;;;;;;28.10;15.47;;;;;;;4.85;60.42;98779.13;5347974;32;34781;-62
2022/04/02 07:28:28;;;;;;;24.80;13.97;;;;;;;4.98;59.53;98778.62;5360968;32;34675;-63
2022/04/02 07:31:30;;;;;;;25.80;14.27;;;;;;;5.07;59.68;98784.28;5374334;32;35150;-63
2022/04/02 07:34:32;;;;;;;25.70;13.83;;;;;;;5.29;59.11;98781.63;5361678;32;34467;-64
2022/04/02 07:38:03;;;;;;;25.30;15.20;;;;;;;5.14;59.04;98769.25;5374602;32;43146;-61
2022/04/02 07:41:36;;;;;;;24.20;14.63;;;;;;;5.21;59.17;98782.84;5341192;32;44646;-61
2022/04/02 07:44:58;;;;;;;25.50;15.13;;;;;;;5.49;57.79;98787.75;5362070;32;43814;-61
2022/04/02 07:48:06;;;;;;;26.13;14.30;;;;;;;5.23;59.05;98792.31;5370144;32;35673;-62
2022/04/02 07:51:13;;;;;;;23.37;13.93;;;;;;;5.78;56.99;98795.09;5346179;32;44586;-63
2022/04/02 07:54:17;;;;;;;24.23;14.23;;;;;;;5.94;56.73;98795.28;5361043;32;34834;-63
2022/04/02 07:57:19;;;;;;;21.53;13.73;;;;;;;5.90;56.24;98796.31;5360389;32;35557;-64
2022/04/02 08:00:22;;;;;;;26.73;15.03;;;;;;;4.88;60.63;98801.59;5361554;32;34513;-64
2022/04/02 08:03:24;;;;;;;23.50;14.10;;;;;;;5.62;58.40;98810.59;5373817;32;34993;-63
2022/04/02 08:06:27;;;;;;;26.33;14.83;;;;;;;5.71;58.13;98802.34;5358444;32;34111;-62
2022/04/02 08:09:30;;;;;;;25.67;15.65;;;;;;;5.69;58.63;98809.41;5373613;32;34432;-63
2022/04/02 08:12:36;;;;;;;26.62;14.57;;;;;;;6.46;55.65;98804.16;5357655;32;34958;-62
2022/04/02 08:15:38;;;;;;;24.30;13.93;;;;;;;6.42;55.73;98806.97;5368185;32;44586;-63
2022/04/02 08:18:41;;;;;;;28.87;14.80;;;;;;;5.68;57.32;98799.88;5359329;32;35121;-63
2022/04/02 08:21:43;;;;;;;27.03;16.10;;;;;;;5.74;58.71;98809.19;5360515;32;34923;-62
2022/04/02 08:24:45;;;;;;;24.20;15.20;;;;;;;5.82;58.05;98811.47;5376962;32;35197;-63
2022/04/02 08:28:00;;;;;;;26.33;14.70;;;;;;;5.72;58.31;98814.47;5361785;32;35108;-63
2022/04/02 08:31:06;;;;;;;27.87;15.73;;;;;;;5.95;57.63;98816.09;5373814;32;34806;-63
2022/04/02 08:34:30;;;;;;;32.43;18.03;;;;;;;5.90;58.15;98820.63;5362593;32;44485;-63
2022/04/02 08:37:57;;;;;;;25.23;14.00;;;;;;;5.67;58.33;98826.87;5348956;32;35074;-63
2022/04/02 08:41:47;;;;;;;26.53;14.70;;;;;;;5.41;59.33;98828.00;5356135;32;35125;-62
2022/04/02 08:45:03;;;;;;;24.63;14.53;;;;;;;5.53;59.21;98836.19;5339530;32;34596;-63
2022/04/02 08:48:20;;;;;;;24.83;14.30;;;;;;;5.42;59.83;98840.13;5362384;32;44529;-64
2022/04/02 08:51:41;;;;;;;24.97;14.20;;;;;;;6.15;58.08;98838.66;5376751;32;36596;-62
2022/04/02 08:54:59;;;;;;;26.83;15.30;;;;;;;6.39;56.76;98838.44;5362033;32;44451;-65
2022/04/02 08:58:19;;;;;;;25.63;14.93;;;;;;;5.97;57.89;98840.31;5369758;32;34946;-61
2022/04/02 09:01:27;;;;;;;25.50;13.67;;;;;;;6.38;57.07;98837.59;5367109;32;35450;-64
2022/04/02 09:04:37;;;;;;;23.63;14.37;;;;;;;6.62;56.14;98851.25;5352696;32;34939;-62
2022/04/02 09:07:48;;;;;;;24.87;14.93;;;;;;;6.06;57.69;98846.91;5346664;32;46860;-64
2022/04/02 09:11:11;;;;;;;24.93;14.87;;;;;;;6.22;57.01;98854.88;5347092;32;35487;-61
2022/04/02 09:14:28;;;;;;;23.60;13.83;;;;;;;7.03;54.54;98849.28;5367597;32;44553;-62
2022/04/02 09:17:53;;;;;;;23.90;14.20;;;;;;;6.55;56.28;98849.84;5372120;32;36320;-64
2022/04/02 09:21:01;;;;;;;26.57;13.97;;;;;;;5.47;58.79;98863.34;5357952;32;34788;-64
2022/04/02 09:24:08;;;;;;;22.57;13.20;;;;;;;6.75;55.60;98864.56;5363044;32;44678;-62
2022/04/02 09:27:22;;;;;;;24.17;12.83;;;;;;;6.38;56.70;98868.06;5358594;32;35715;-63
2022/04/02 09:31:01;;;;;;;24.58;13.73;;;;;;;6.46;56.39;98861.56;5360989;32;34447;-63
2022/04/02 09:34:54;;;;;;;21.73;13.27;;;;;;;5.52;58.99;98874.44;5374611;32;35572;-61
2022/04/02 09:38:05;;;;;;;28.57;13.83;;;;;;;6.00;58.30;98875.88;5323102;32;35360;-63
2022/04/02 09:41:16;;;;;;;23.37;13.83;;;;;;;6.76;56.11;98888.00;5348305;32;42744;-61
2022/04/02 09:44:34;;;;;;;26.37;14.00;;;;;;;6.96;54.44;98881.00;5377532;32;35938;-64
2022/04/02 09:47:51;;;;;;;22.97;13.53;;;;;;;6.75;55.72;98885.44;5357412;32;44402;-63
2022/04/02 09:50:56;;;;;;;22.13;13.87;;;;;;;7.30;53.64;98883.63;5372639;32;34339;-62
2022/04/02 09:54:03;;;;;;;26.73;13.57;;;;;;;8.40;51.83;98883.19;5363237;32;35073;-63
2022/04/02 09:57:14;;;;;;;22.73;13.73;;;;;;;8.39;51.28;98881.50;5361215;32;45147;-62
2022/04/02 10:00:16;;;;;;;22.73;13.97;;;;;;;8.06;52.24;98886.72;5377436;32;34920;-63
2022/04/02 10:03:28;;;;;;;24.70;13.17;;;;;;;8.05;51.86;98890.28;5361614;32;34244;-62
2022/04/02 10:06:41;;;;;;;21.30;12.73;;;;;;;7.87;52.17;98896.47;5374935;32;34581;-62
2022/04/02 10:09:45;;;;;;;22.55;13.95;;;;;;;6.73;55.33;98895.97;5362872;32;45165;-64
2022/04/02 10:12:48;;;;;;;24.87;15.27;;;;;;;7.05;55.18;98896.22;5355815;32;34921;-64
2022/04/02 10:15:52;;;;;;;23.15;13.32;;;;;;;6.50;57.08;98896.19;5372766;32;34890;-64
2022/04/02 10:18:55;;;;;;;;;;;;;;;6.70;56.51;98896.13;5358573;32;34163;-62
2022/04/02 10:22:02;;;;;;;24.37;13.30;;;;;;;6.34;59.26;98909.09;5374615;32;34502;-63
2022/04/02 10:25:07;;;;;;;24.37;14.20;;;;;;;6.80;56.81;98906.97;5361054;32;44535;-64
2022/04/02 10:28:14;;;;;;;22.73;13.40;;;;;;;7.31;55.58;98902.78;5357607;32;34496;-63
2022/04/02 10:31:37;;;;;;;23.07;13.43;;;;;;;7.62;55.12;98899.47;5356299;32;34921;-62
2022/04/02 10:34:48;;;;;;;25.63;13.53;;;;;;;8.01;53.70;98903.59;5360516;32;44659;-63
2022/04/02 10:38:09;;;;;;;23.20;13.13;;;;;;;6.95;57.11;98906.25;5356506;32;34522;-63
2022/04/02 10:41:16;;;;;;;25.73;13.87;;;;;;;6.94;57.11;98904.56;5341342;32;45192;-63
2022/04/02 10:44:37;;;;;;;25.47;14.50;;;;;;;6.62;58.79;98908.69;5355153;32;34695;-62
2022/04/02 10:48:05;;;;;;;24.73;14.43;;;;;;;6.59;59.10;98908.84;5371160;32;44579;-61
2022/04/02 10:51:08;;;;;;;26.30;14.37;;;;;;;6.93;58.24;98908.09;5344344;32;44334;-63
2022/04/02 10:54:13;;;;;;;24.10;13.32;;;;;;;7.16;57.89;98909.59;5376795;32;34514;-65
2022/04/02 10:57:16;;;;;;;22.57;13.77;;;;;;;7.23;57.98;98907.53;5359600;32;34673;-62
2022/04/02 11:00:18;;;;;;;23.83;13.52;;;;;;;6.89;58.81;98917.00;5361099;32;34653;-63
2022/04/02 11:03:28;;;;;;;23.27;13.43;;;;;;;7.88;56.39;98914.69;5374789;32;34737;-62
2022/04/02 11:07:03;;;;;;;26.90;14.37;;;;;;;7.20;57.62;98931.19;5360455;32;35178;-63
2022/04/02 11:10:06;;;;;;;24.67;13.90;;;;;;;6.01;62.76;98939.31;5351564;32;34601;-64
2022/04/02 11:13:08;;;;;;;22.20;13.03;;;;;;;6.58;61.46;98937.62;5347629;32;34559;-63
2022/04/02 11:16:15;;;;;;;25.20;13.83;;;;;;;6.90;59.54;98941.34;5359947;32;34506;-63
2022/04/02 11:22:59;;;;;;;26.27;14.37;;;;;;;6.53;61.50;98940.44;5359965;32;44951;-63
2022/04/02 11:26:05;;;;;;;20.83;12.33;;;;;;;6.55;61.44;98945.59;5372909;32;34931;-62
2022/04/02 11:29:07;;;;;;;25.33;14.20;;;;;;;7.04;60.58;98952.00;5358356;32;44481;-62
2022/04/02 11:32:10;;;;;;;23.55;13.85;;;;;;;6.57;61.75;98944.63;5358189;32;35904;-63
2022/04/02 11:35:14;;;;;;;22.55;12.80;;;;;;;6.88;61.14;98944.03;5374139;32;34210;-62
2022/04/02 11:38:20;;;;;;;25.25;13.98;;;;;;;7.31;59.55;98939.38;5346667;32;34697;-65
2022/04/02 11:41:27;;;;;;;26.07;13.70;;;;;;;7.63;59.08;98934.31;5351535;32;36830;-61
2022/04/02 11:44:37;;;;;;;24.50;13.03;;;;;;;7.04;61.66;98947.63;5353386;32;34090;-63
2022/04/02 11:47:49;;;;;;;27.77;13.17;;;;;;;7.14;61.15;98957.63;5360213;32;44336;-64
2022/04/02 11:50:52;;;;;;;23.00;12.80;;;;;;;6.65;62.34;98942.50;5345351;32;35211;-63
2022/04/02 11:54:03;;;;;;;22.80;12.87;;;;;;;7.16;61.83;98956.63;5349680;32;34644;-61
2022/04/02 11:57:11;;;;;;;21.73;12.10;;;;;;;7.49;60.98;98954.16;5369213;32;44830;-62
2022/04/02 12:00:14;;;;;;;22.03;11.67;;;;;;;7.45;60.15;98952.59;5362113;32;35079;-63
2022/04/02 12:03:21;;;;;;;26.00;12.20;;;;;;;6.92;61.92;98952.56;5375840;32;35136;-64
2022/04/02 12:06:33;;;;;;;21.23;12.53;;;;;;;6.98;61.65;98947.91;5357147;32;35306;-64
2022/04/02 12:09:48;;;;;;;23.37;12.60;;;;;;;6.90;62.19;98951.81;5362437;32;44845;-65
2022/04/02 12:12:52;;;;;;;20.90;12.30;;;;;;;7.22;61.81;98952.88;5378281;32;34879;-64
2022/04/02 12:16:03;;;;;;;21.90;12.67;;;;;;;7.54;61.67;98941.72;5358346;32;36267;-63
2022/04/02 12:19:07;;;;;;;21.43;12.47;;;;;;;7.39;61.43;98946.81;5372323;32;44794;-63
2022/04/02 12:22:38;;;;;;;23.90;12.27;;;;;;;6.22;66.24;98947.03;5358749;32;34943;-63
2022/04/02 12:25:53;;;;;;;21.30;11.80;;;;;;;6.50;68.00;98946.66;5359787;32;45091;-63
2022/04/02 12:28:58;;;;;;;19.50;11.27;;;;;;;7.76;62.50;98930.16;5376107;32;35398;-63
2022/04/02 12:32:01;;;;;;;20.27;11.27;;;;;;;7.33;64.24;98947.97;5359852;32;34204;-64
2022/04/02 12:35:09;;;;;;;24.48;12.43;;;;;;;6.85;66.19;98949.41;5376227;32;34618;-63
2022/04/02 12:38:24;;;;;;;19.13;11.93;;;;;;;7.25;64.97;98957.97;5353296;32;45112;-63
2022/04/02 12:41:28;;;;;;;19.90;11.93;;;;;;;6.86;65.50;98947.63;5350069;32;35639;-63
2022/04/02 12:44:30;;;;;;;;;;;;;;;8.36;61.86;98959.34;5379088;32;34399;-63
2022/04/02 12:47:34;;;;;;;21.17;12.10;;;;;;;7.07;65.04;98962.28;5360000;32;34426;-62
2022/04/02 12:50:37;;;;;;;;;;;;;;;6.82;67.99;98959.13;5375526;32;44693;-63
2022/04/02 12:53:44;;;;;;;18.60;10.90;;;;;;;7.31;65.04;98955.06;5361723;32;34961;-63
2022/04/02 12:56:46;;;;;;;18.90;11.87;;;;;;;7.35;66.34;98967.06;5351739;32;34815;-63
2022/04/02 12:59:55;;;;;;;20.83;12.10;;;;;;;7.81;66.07;98952.56;5373828;32;35243;-63
2022/04/02 13:02:59;;;;;;;26.53;15.60;;;;;;;7.25;66.62;98960.56;5361644;32;34860;-61
2022/04/02 13:06:02;;;;;;;21.10;11.77;;;;;;;6.70;69.77;98957.97;5362073;32;34694;-63
2022/04/02 13:09:17;;;;;;;20.52;11.75;;;;;;;6.54;69.50;98964.78;5350461;32;45204;-63
2022/04/02 13:12:23;;;;;;;22.00;11.33;;;;;;;6.86;69.08;98963.31;5374107;32;35176;-62
2022/04/02 13:15:28;;;;;;;17.53;10.57;;;;;;;6.52;69.92;98964.84;5363340;32;35112;-64
2022/04/02 13:22:00;;;;;;;19.93;11.03;;;;;;;7.51;68.21;98967.97;5374320;32;34810;-64
2022/04/02 13:25:07;;;;;;;19.33;11.03;;;;;;;5.98;72.35;98972.41;5356384;32;34654;-61
2022/04/02 13:28:18;;;;;;;25.13;10.97;;;;;;;7.11;69.32;98971.69;5373037;32;43246;-62
2022/04/02 13:31:25;;;;;;;17.87;9.80;;;;;;;7.15;68.20;98964.53;5362334;32;34189;-62
2022/04/02 13:34:43;;;;;;;19.40;10.50;;;;;;;7.50;67.00;98965.44;5354424;32;34219;-62
2022/04/02 13:38:25;;;;;;;21.23;11.90;;;;;;;7.66;65.55;98976.00;5350324;32;34417;-62
2022/04/02 13:41:28;;;;;;;19.10;10.70;;;;;;;6.46;72.55;98976.41;5341537;32;35259;-62
2022/04/02 13:44:31;;;;;;;18.65;10.15;;;;;;;6.37;70.07;98973.34;5368074;32;34479;-64
2022/04/02 13:47:39;;;;;;;22.73;10.65;;;;;;;6.60;68.99;98980.16;5359774;32;35308;-64
2022/04/02 13:51:07;;;;;;;16.70;10.00;;;;;;;6.56;70.68;98975.97;5360962;32;47486;-65
2022/04/02 13:54:20;;;;;;;17.03;9.20;;;;;;;7.55;66.71;98981.78;5374620;32;44615;-63
2022/04/02 13:57:30;;;;;;;18.77;10.05;;;;;;;6.71;66.68;98984.00;5361417;32;34706;-63
2022/04/02 14:00:39;;;;;;;16.67;9.80;;;;;;;6.87;66.81;98981.50;5347445;32;34240;-62
2022/04/02 14:03:45;;;;;;;20.43;10.10;;;;;;;7.19;66.64;98992.22;5376825;32;46801;-64
2022/04/02 14:06:52;;;;;;;17.27;9.43;;;;;;;7.44;64.93;98984.06;5360451;32;35084;-61
2022/04/02 14:10:01;;;;;;;19.43;9.23;;;;;;;7.25;65.18;98997.16;5377486;32;36647;-63
2022/04/02 14:13:24;;;;;;;17.80;9.40;;;;;;;7.42;65.12;98993.75;5361798;32;35231;-63
2022/04/02 14:16:31;;;;;;;19.20;9.27;;;;;;;7.09;64.49;99004.03;5356111;32;35306;-62
2022/04/02 14:19:57;;;;;;;17.73;10.03;;;;;;;6.60;67.51;99001.06;5372088;32;34733;-62
2022/04/02 14:23:16;;;;;;;19.50;10.03;;;;;;;6.85;68.24;98998.19;5343116;32;35550;-62
2022/04/02 14:26:36;;;;;;;20.67;10.00;;;;;;;7.23;66.36;98999.00;5369514;32;34738;-63
2022/04/02 14:30:13;;;;;;;18.00;9.17;;;;;;;6.47;66.35;99011.19;5367571;32;46724;-61
2022/04/02 14:33:31;;;;;;;18.47;9.47;;;;;;;6.98;67.60;99009.75;5359757;32;34253;-62
2022/04/02 14:37:05;;;;;;;17.07;9.13;;;;;;;6.78;68.80;99011.50;5372493;32;34879;-61
2022/04/02 14:40:48;;;;;;;17.67;8.50;;;;;;;6.29;70.16;99014.59;5339608;32;34239;-63
2022/04/02 14:44:39;;;;;;;16.43;8.47;;;;;;;6.62;67.82;99013.09;5362550;32;34421;-62